Aviation Digital Data Service (ADDS)

Output produced by TAFs form (1442 UTC 21 April 2014)
found at http://aviationweather.gov/adds/tafs/
 
KASE 211120Z 2112/2212 21005KT P6SM SCT150 
     FM211700 36007KT P6SM VCSH SCT080 BKN150 
     FM220200 19006KT P6SM SCT200